This is the latest recevied weather packets stored in our database for station/object DK0KTL-4. If no packets are shown the sender has not sent any weather packets the latest 10 day(s).
| Time | Temp. | Humidity | Pressure | Rain* | Wind** | Luminosity | Snow |
|---|---|---|---|---|---|---|---|
| 1777578263 | 8.89° C | 62% | 1029.1 hPa | 0 mm | - | - | - |
| 1777577663 | 8.89° C | 62% | 1029.1 hPa | 0 mm | - | - | - |
| 1777577362 | 9.44° C | 61% | 1029.1 hPa | 0 mm | - | - | - |
| 1777576161 | 10° C | 58% | 1029 hPa | 0 mm | - | - | - |
| 1777575861 | 10.56° C | 57% | 1029.1 hPa | 0 mm | - | - | - |
| 1777572558 | 14.44° C | 44% | 1029 hPa | 0 mm | - | - | - |
| 1777571356 | 15.56° C | 42% | 1029 hPa | 0 mm | - | - | - |
| 1777571056 | 15.56° C | 42% | 1029.1 hPa | 0 mm | - | - | - |
| 1777570155 | 16.11° C | 40% | 1029.2 hPa | 0 mm | - | - | - |
| 1777569555 | 16.67° C | 38% | 1029 hPa | 0 mm | - | - | - |
| 1777569254 | 17.22° C | 38% | 1028.9 hPa | 0 mm | - | - | - |
| 1777568954 | 17.22° C | 37% | 1028.8 hPa | 0 mm | - | - | - |
| 1777568654 | 17.78° C | 36% | 1028.9 hPa | 0 mm | - | - | - |
| 1777567453 | 18.33° C | 36% | 1029 hPa | 0 mm | - | - | - |
| 1777567152 | 18.33° C | 36% | 1029 hPa | 0 mm | - | - | - |
| 1777565951 | 19.44° C | 35% | 1029.1 hPa | 0 mm | - | - | - |
| 1777565351 | 19.44° C | 36% | 1029.1 hPa | 0 mm | - | - | - |
| 1777564750 | 19.44° C | 34% | 1029.3 hPa | 0 mm | - | - | - |
| 1777564450 | 19.44° C | 35% | 1029.2 hPa | 0 mm | - | - | - |
| 1777564149 | 19.44° C | 35% | 1029.3 hPa | 0 mm | - | - | - |
| 1777563549 | 20° C | 35% | 1029.2 hPa | 0 mm | - | - | - |
| 1777563249 | 20° C | 34% | 1029.1 hPa | 0 mm | - | - | - |
| 1777560846 | 20° C | 34% | 1029.3 hPa | 0 mm | - | - | - |
| 1777560246 | 20° C | 32% | 1029.4 hPa | 0 mm | - | - | - |
| 1777559645 | 20° C | 32% | 1029.4 hPa | 0 mm | - | - | - |
* Rain latest hour (hover to see other rain measurements)
** Current wind speed in m/s (hover to see current wind gust speed)